createdAt,value
2024-02-13T00:00:53.070Z,8.58
2024-02-13T00:03:54.205Z,8.54
2024-02-13T00:06:56.789Z,8.50
2024-02-13T00:09:57.800Z,8.47
2024-02-13T00:13:01.644Z,8.46
2024-02-13T00:16:03.937Z,8.45
2024-02-13T00:19:07.827Z,8.43
2024-02-13T00:22:12.676Z,8.39
2024-02-13T00:25:14.013Z,8.36
2024-02-13T00:28:14.985Z,8.36
2024-02-13T00:31:15.954Z,8.36
2024-02-13T00:34:20.207Z,8.33
2024-02-13T00:37:23.822Z,8.29
2024-02-13T00:40:24.871Z,8.28
2024-02-13T00:43:27.251Z,8.29
2024-02-13T00:46:30.032Z,8.27
2024-02-13T00:49:31.127Z,8.23
2024-02-13T00:52:32.950Z,8.21
2024-02-13T00:55:33.876Z,8.17
2024-02-13T00:58:36.668Z,8.13
2024-02-13T01:01:38.268Z,8.08
2024-02-13T01:04:39.193Z,8.08
2024-02-13T01:07:40.529Z,8.06
2024-02-13T01:10:41.991Z,8.04
2024-02-13T01:13:43.068Z,8.02
2024-02-13T01:16:44.995Z,7.99
2024-02-13T01:19:47.736Z,7.95
2024-02-13T01:22:48.759Z,7.93
2024-02-13T01:25:49.738Z,7.90
2024-02-13T01:28:50.704Z,7.86
2024-02-13T01:31:52.498Z,7.83
2024-02-13T01:34:53.912Z,7.79
2024-02-13T01:37:57.075Z,7.73
2024-02-13T01:40:58.636Z,7.69
2024-02-13T01:44:00.965Z,7.63
2024-02-13T01:47:02.868Z,7.61
2024-02-13T01:50:07.064Z,7.61
2024-02-13T01:53:08.113Z,7.63
2024-02-13T01:56:10.488Z,7.63
2024-02-13T01:59:14.922Z,7.61
2024-02-13T02:02:16.181Z,7.59
2024-02-13T02:05:17.697Z,7.55
2024-02-13T02:08:19.244Z,7.48
2024-02-13T02:11:20.522Z,7.45
2024-02-13T02:14:22.789Z,7.43
2024-02-13T02:17:23.934Z,7.41
2024-02-13T02:20:25.095Z,7.40
2024-02-13T02:23:27.260Z,7.38
2024-02-13T02:26:28.373Z,7.36
2024-02-13T02:29:31.548Z,7.35
2024-02-13T02:32:33.086Z,7.33
2024-02-13T02:35:34.349Z,7.31
2024-02-13T02:38:38.907Z,7.31
2024-02-13T02:41:40.019Z,7.33
2024-02-13T02:44:42.018Z,7.34
2024-02-13T02:47:43.587Z,7.31
2024-02-13T02:50:44.764Z,7.31
2024-02-13T02:53:45.752Z,7.29
2024-02-13T02:56:46.821Z,7.25
2024-02-13T02:59:48.109Z,7.22
2024-02-13T03:02:49.494Z,7.20
2024-02-13T03:05:52.148Z,7.17
2024-02-13T03:08:53.255Z,7.14
2024-02-13T03:11:54.307Z,7.12
2024-02-13T03:14:56.637Z,7.14
2024-02-13T03:17:58.449Z,7.15
2024-02-13T03:20:59.690Z,7.15
2024-02-13T03:24:00.644Z,7.12
2024-02-13T03:27:02.367Z,7.09
2024-02-13T03:30:03.982Z,7.05
2024-02-13T03:33:05.120Z,7.00
2024-02-13T03:36:06.571Z,6.94
2024-02-13T03:39:07.622Z,6.88
2024-02-13T03:42:09.490Z,6.82
2024-02-13T03:45:11.313Z,6.77
2024-02-13T03:48:12.421Z,6.74
2024-02-13T03:51:13.943Z,6.72
2024-02-13T03:54:14.980Z,6.71
2024-02-13T03:57:15.949Z,6.65
2024-02-13T04:00:18.198Z,6.58
2024-02-13T04:03:19.129Z,6.54
2024-02-13T04:06:20.540Z,6.53
2024-02-13T04:09:21.659Z,6.54
2024-02-13T04:12:22.946Z,6.54
2024-02-13T04:15:23.897Z,6.55
2024-02-13T04:18:25.069Z,6.52
2024-02-13T04:21:26.105Z,6.48
2024-02-13T04:24:27.085Z,6.47
2024-02-13T04:27:28.106Z,6.46
2024-02-13T04:30:29.056Z,6.45
2024-02-13T04:33:30.135Z,6.47
2024-02-13T04:36:32.286Z,6.47
2024-02-13T04:39:33.307Z,6.45
2024-02-13T04:42:35.973Z,6.47
2024-02-13T04:45:37.165Z,6.50
2024-02-13T04:48:38.254Z,6.51
2024-02-13T04:51:39.399Z,6.54
2024-02-13T04:54:40.365Z,6.58
2024-02-13T04:57:41.288Z,6.63
2024-02-13T05:00:51.768Z,6.64
2024-02-13T05:03:55.424Z,6.69
2024-02-13T05:07:15.036Z,6.73
2024-02-13T05:10:16.152Z,6.76
2024-02-13T05:13:18.637Z,6.75
2024-02-13T05:16:19.551Z,6.80
2024-02-13T05:19:21.728Z,6.84
2024-02-13T05:22:22.774Z,6.84
2024-02-13T05:25:23.714Z,6.87
2024-02-13T05:28:24.732Z,6.85
2024-02-13T05:31:26.012Z,6.84
2024-02-13T05:34:27.040Z,6.83
2024-02-13T05:37:28.318Z,6.85
2024-02-13T05:40:29.872Z,6.87
2024-02-13T05:43:31.044Z,6.92
2024-02-13T05:46:32.259Z,6.98
2024-02-13T05:49:34.270Z,7.02
2024-02-13T05:52:36.489Z,7.07
2024-02-13T05:55:37.690Z,7.10
2024-02-13T05:58:39.416Z,7.15
2024-02-13T06:01:40.415Z,7.17
2024-02-13T06:04:42.454Z,7.19
2024-02-13T06:07:44.679Z,7.22
2024-02-13T06:10:45.759Z,7.24
2024-02-13T06:13:47.098Z,7.24
2024-02-13T06:16:48.071Z,7.25
2024-02-13T06:19:49.204Z,7.25
2024-02-13T06:22:50.316Z,7.27
2024-02-13T06:25:51.296Z,7.24
2024-02-13T06:28:52.868Z,7.21
2024-02-13T06:31:55.591Z,7.22
2024-02-13T06:34:56.760Z,7.23
2024-02-13T06:37:59.816Z,7.25
2024-02-13T06:41:01.325Z,7.25
2024-02-13T06:44:03.860Z,7.23
2024-02-13T06:47:07.523Z,7.23
2024-02-13T06:50:12.753Z,7.22
2024-02-13T06:53:14.273Z,7.20
2024-02-13T06:56:16.669Z,7.19
2024-02-13T06:59:17.840Z,7.17
2024-02-13T07:02:19.029Z,7.17
2024-02-13T07:05:20.280Z,7.18
2024-02-13T07:08:21.520Z,7.17
2024-02-13T07:11:22.811Z,7.16
2024-02-13T07:14:25.621Z,7.19
2024-02-13T07:17:27.978Z,7.20
2024-02-13T07:20:29.285Z,7.21
2024-02-13T07:23:30.636Z,7.20
2024-02-13T07:26:31.654Z,7.19
2024-02-13T07:29:33.003Z,7.19
2024-02-13T07:32:34.876Z,7.20
2024-02-13T07:35:36.594Z,7.22
2024-02-13T07:38:37.598Z,7.22
2024-02-13T07:41:38.702Z,7.22
2024-02-13T07:44:39.855Z,7.23
2024-02-13T07:47:42.080Z,7.25
2024-02-13T07:50:43.082Z,7.25
2024-02-13T07:53:44.558Z,7.26
2024-02-13T07:56:46.420Z,7.25
2024-02-13T07:59:47.522Z,7.23
2024-02-13T08:02:49.954Z,7.24
2024-02-13T08:05:51.656Z,7.23
2024-02-13T08:08:52.872Z,7.23
2024-02-13T08:11:54.574Z,7.24
2024-02-13T08:14:55.720Z,7.27
2024-02-13T08:17:57.522Z,7.30
2024-02-13T08:20:59.591Z,7.35
2024-02-13T08:24:00.748Z,7.41
2024-02-13T08:27:02.250Z,7.46
2024-02-13T08:30:10.409Z,7.47
2024-02-13T08:33:11.693Z,7.49
2024-02-13T08:36:12.850Z,7.48
2024-02-13T08:39:13.822Z,7.47
2024-02-13T08:42:14.750Z,7.47
2024-02-13T08:45:15.861Z,7.47
2024-02-13T08:48:17.177Z,7.51
2024-02-13T08:51:25.627Z,7.60
2024-02-13T08:54:26.584Z,7.67
2024-02-13T08:57:27.575Z,7.77
2024-02-13T09:00:29.620Z,7.84
2024-02-13T09:03:30.571Z,7.88
2024-02-13T09:06:32.751Z,7.95
2024-02-13T09:09:35.314Z,7.94
2024-02-13T09:12:36.313Z,7.89
2024-02-13T09:15:37.292Z,7.90
2024-02-13T09:18:38.918Z,7.89
2024-02-13T09:21:40.800Z,7.86
2024-02-13T09:24:44.625Z,7.84
2024-02-13T09:27:48.635Z,7.85
2024-02-13T09:30:51.022Z,7.83
2024-02-13T09:33:52.088Z,7.81
2024-02-13T09:36:53.194Z,7.84
2024-02-13T09:39:55.671Z,7.85
2024-02-13T09:42:56.741Z,7.85
2024-02-13T09:45:57.700Z,7.83
2024-02-13T09:48:59.968Z,7.83
2024-02-13T09:52:07.947Z,7.81
2024-02-13T09:55:10.061Z,7.80
2024-02-13T09:58:11.789Z,7.75
2024-02-13T10:01:13.584Z,7.72
2024-02-13T10:04:14.899Z,7.72
2024-02-13T10:07:15.988Z,7.76
2024-02-13T10:10:17.032Z,7.73
2024-02-13T10:13:18.615Z,7.65
2024-02-13T10:16:24.114Z,7.55
2024-02-13T10:19:28.467Z,7.50
2024-02-13T10:22:31.099Z,7.50
2024-02-13T10:25:33.584Z,7.49
2024-02-13T10:28:35.001Z,7.44
2024-02-13T10:31:36.585Z,7.40
2024-02-13T10:34:38.634Z,7.42
2024-02-13T10:37:40.303Z,7.40
2024-02-13T10:40:43.918Z,7.41
2024-02-13T10:43:47.191Z,7.49
2024-02-13T10:46:49.679Z,7.60
2024-02-13T10:49:54.648Z,7.68
2024-02-13T10:52:55.831Z,7.78
2024-02-13T10:55:58.361Z,7.85
2024-02-13T10:58:59.522Z,7.87
2024-02-13T11:02:02.406Z,7.90
2024-02-13T11:05:09.673Z,7.85
2024-02-13T11:08:13.884Z,7.85
2024-02-13T11:11:17.301Z,7.86
2024-02-13T11:14:22.772Z,7.92
2024-02-13T11:17:32.186Z,7.94
2024-02-13T11:20:38.384Z,7.93
2024-02-13T11:23:50.186Z,7.86
2024-02-13T11:26:51.256Z,7.75
2024-02-13T11:30:24.086Z,7.72
2024-02-13T11:33:25.162Z,7.63
2024-02-13T11:36:30.152Z,7.66
2024-02-13T11:39:31.472Z,7.78
2024-02-13T11:42:35.941Z,7.84
2024-02-13T11:45:36.900Z,7.86
2024-02-13T11:48:40.213Z,7.82
2024-02-13T11:51:42.495Z,7.76
2024-02-13T11:54:50.985Z,7.76
2024-02-13T11:57:51.969Z,7.80
2024-02-13T12:01:01.312Z,7.87
2024-02-13T12:04:02.488Z,7.93
2024-02-13T12:07:04.358Z,7.97
2024-02-13T12:10:07.678Z,8.01
2024-02-13T12:13:12.201Z,8.07
2024-02-13T12:16:15.144Z,8.11
2024-02-13T12:19:17.613Z,8.13
2024-02-13T12:22:18.956Z,8.15
2024-02-13T12:25:20.310Z,8.16
2024-02-13T12:28:21.974Z,8.17
2024-02-13T12:31:23.828Z,8.15
2024-02-13T12:34:26.325Z,8.16
2024-02-13T12:37:31.644Z,8.21
2024-02-13T12:40:33.319Z,8.23
2024-02-13T12:43:34.346Z,8.18
2024-02-13T12:46:37.540Z,8.16
2024-02-13T12:49:39.482Z,8.15
2024-02-13T12:52:40.585Z,8.08
2024-02-13T12:55:54.082Z,7.96
2024-02-13T12:58:55.038Z,7.85
2024-02-13T13:01:59.546Z,7.77
2024-02-13T13:05:02.800Z,7.75
2024-02-13T13:08:05.617Z,7.78
2024-02-13T13:11:06.628Z,7.78
2024-02-13T13:14:08.885Z,7.77
2024-02-13T13:17:11.924Z,7.76
2024-02-13T13:20:18.626Z,7.76
2024-02-13T13:23:21.308Z,7.73
2024-02-13T13:26:24.339Z,7.73
2024-02-13T13:29:25.374Z,7.68
2024-02-13T13:32:27.020Z,7.57
2024-02-13T13:35:29.752Z,7.50
2024-02-13T13:38:31.127Z,7.48
2024-02-13T13:41:33.563Z,7.47
2024-02-13T13:44:34.748Z,7.49
2024-02-13T13:47:35.762Z,7.47
2024-02-13T13:50:39.738Z,7.43
2024-02-13T13:53:40.917Z,7.44
2024-02-13T13:56:42.131Z,7.43
2024-02-13T13:59:43.302Z,7.35
2024-02-13T14:02:44.379Z,7.25
2024-02-13T14:05:45.691Z,7.17
2024-02-13T14:08:46.890Z,7.12
2024-02-13T14:11:47.984Z,7.07
2024-02-13T14:14:49.194Z,7.05
2024-02-13T14:17:50.291Z,7.05
2024-02-13T14:20:53.074Z,7.04
2024-02-13T14:23:57.505Z,6.99
2024-02-13T14:26:58.668Z,6.97
2024-02-13T14:29:59.828Z,6.93
2024-02-13T14:33:07.565Z,6.93
2024-02-13T14:36:09.090Z,6.94
2024-02-13T14:39:17.341Z,6.94
2024-02-13T14:42:18.522Z,6.97
2024-02-13T14:45:20.866Z,6.92
2024-02-13T14:48:21.934Z,6.96
2024-02-13T14:51:23.096Z,7.00
2024-02-13T14:54:24.118Z,7.00
2024-02-13T14:57:25.120Z,7.04
2024-02-13T15:00:27.486Z,7.09
2024-02-13T15:03:28.581Z,7.15
2024-02-13T15:06:30.094Z,7.21
2024-02-13T15:09:31.310Z,7.25
2024-02-13T15:12:32.322Z,7.32
2024-02-13T15:15:34.257Z,7.36
2024-02-13T15:18:37.386Z,7.38
2024-02-13T15:21:38.428Z,7.35
2024-02-13T15:24:40.119Z,7.29
2024-02-13T15:27:41.070Z,7.27
2024-02-13T15:30:42.031Z,7.21
2024-02-13T15:33:43.370Z,7.07
2024-02-13T15:37:02.439Z,6.85
2024-02-13T15:40:23.430Z,6.70
2024-02-13T15:43:42.936Z,6.60
2024-02-13T15:46:59.010Z,6.54
2024-02-13T15:50:01.970Z,6.50
2024-02-13T15:53:03.694Z,6.47
2024-02-13T15:56:06.412Z,6.47
2024-02-13T15:59:10.099Z,6.45
2024-02-13T16:02:11.372Z,6.43
2024-02-13T16:05:15.540Z,6.37
2024-02-13T16:08:16.485Z,6.33
2024-02-13T16:11:18.242Z,6.29
2024-02-13T16:14:19.446Z,6.24
2024-02-13T16:17:21.436Z,6.21
2024-02-13T16:20:22.728Z,6.21
2024-02-13T16:23:23.937Z,6.21
2024-02-13T16:26:27.500Z,6.18
2024-02-13T16:29:29.121Z,6.17
2024-02-13T16:32:36.218Z,6.17
2024-02-13T16:35:41.382Z,6.14
2024-02-13T16:38:43.202Z,6.14
2024-02-13T16:41:49.583Z,6.13
2024-02-13T16:44:51.678Z,6.16
2024-02-13T16:47:52.813Z,6.15
2024-02-13T16:50:53.915Z,6.13
2024-02-13T16:53:55.101Z,6.11
2024-02-13T16:56:59.321Z,6.16
2024-02-13T17:00:03.517Z,6.20
2024-02-13T17:03:04.979Z,6.22
2024-02-13T17:06:08.881Z,6.19
2024-02-13T17:09:10.713Z,6.21
2024-02-13T17:12:12.672Z,6.21
2024-02-13T17:15:14.071Z,6.12
2024-02-13T17:18:15.762Z,5.97
2024-02-13T17:21:17.355Z,5.87
2024-02-13T17:24:18.456Z,5.83
2024-02-13T17:27:19.494Z,5.78
2024-02-13T17:30:20.586Z,5.70
2024-02-13T17:33:21.704Z,5.67
2024-02-13T17:36:23.310Z,5.64
2024-02-13T17:39:24.241Z,5.60
2024-02-13T17:42:25.449Z,5.62
2024-02-13T17:45:26.591Z,5.61
2024-02-13T17:48:27.957Z,5.60
2024-02-13T17:51:28.998Z,5.59
2024-02-13T17:54:29.963Z,5.61
2024-02-13T17:57:30.901Z,5.63
2024-02-13T18:00:35.692Z,5.63
2024-02-13T18:03:37.002Z,5.59
2024-02-13T18:06:38.340Z,5.50
2024-02-13T18:09:39.344Z,5.48
2024-02-13T18:12:43.465Z,5.48
2024-02-13T18:15:46.760Z,5.48
2024-02-13T18:18:48.076Z,5.40
2024-02-13T18:21:50.090Z,5.33
2024-02-13T18:24:51.187Z,5.25
2024-02-13T18:27:52.795Z,5.15
2024-02-13T18:30:53.756Z,5.07
2024-02-13T18:33:55.002Z,5.04
2024-02-13T18:36:56.565Z,4.97
2024-02-13T18:39:57.521Z,4.97
2024-02-13T18:42:58.528Z,4.97
2024-02-13T18:45:59.822Z,4.99
2024-02-13T18:49:00.989Z,5.04
2024-02-13T18:52:02.272Z,5.09
2024-02-13T18:55:10.393Z,5.12
2024-02-13T18:58:11.628Z,5.10
2024-02-13T19:01:12.716Z,5.11
2024-02-13T19:04:13.716Z,5.14
2024-02-13T19:07:14.797Z,5.12
2024-02-13T19:10:15.793Z,5.11
2024-02-13T19:13:16.805Z,5.10
2024-02-13T19:16:17.750Z,5.14
2024-02-13T19:19:18.841Z,5.16
2024-02-13T19:22:19.831Z,5.24
2024-02-13T19:25:20.925Z,5.30
2024-02-13T19:28:22.831Z,5.28
2024-02-13T19:31:25.017Z,5.24
2024-02-13T19:34:28.269Z,5.27
2024-02-13T19:37:31.177Z,5.26
2024-02-13T19:40:32.516Z,5.30
2024-02-13T19:43:33.513Z,5.34
2024-02-13T19:46:34.632Z,5.34
2024-02-13T19:49:36.404Z,5.33
2024-02-13T19:52:37.463Z,5.27
2024-02-13T19:55:38.724Z,5.25
2024-02-13T19:58:39.737Z,5.24
2024-02-13T20:01:40.816Z,5.18
2024-02-13T20:04:42.037Z,5.13
2024-02-13T20:07:43.327Z,5.08
2024-02-13T20:10:45.597Z,5.05
2024-02-13T20:13:47.013Z,5.02
2024-02-13T20:16:48.366Z,5.03
2024-02-13T20:19:49.383Z,5.09
2024-02-13T20:22:50.461Z,5.11
2024-02-13T20:25:51.953Z,5.12
2024-02-13T20:28:52.948Z,5.10
2024-02-13T20:31:54.519Z,5.09
2024-02-13T20:34:55.914Z,5.10
2024-02-13T20:37:58.375Z,5.14
2024-02-13T20:40:59.458Z,5.15
2024-02-13T20:44:00.906Z,5.18
2024-02-13T20:47:01.864Z,5.20
2024-02-13T20:50:07.585Z,5.24
2024-02-13T20:53:08.577Z,5.29
2024-02-13T20:56:09.569Z,5.32
2024-02-13T20:59:10.804Z,5.35
2024-02-13T21:02:13.275Z,5.41
2024-02-13T21:05:14.316Z,5.40
2024-02-13T21:08:15.301Z,5.39
2024-02-13T21:11:17.374Z,5.41
2024-02-13T21:14:18.384Z,5.43
2024-02-13T21:17:19.425Z,5.42
2024-02-13T21:20:27.807Z,5.44
2024-02-13T21:23:47.624Z,5.45
2024-02-13T21:26:49.480Z,5.48
2024-02-13T21:29:50.939Z,5.55
2024-02-13T21:32:52.046Z,5.56
2024-02-13T21:35:53.127Z,5.50
2024-02-13T21:38:54.231Z,5.51
2024-02-13T21:41:55.234Z,5.52
2024-02-13T21:44:58.639Z,5.51
2024-02-13T21:48:01.638Z,5.54
2024-02-13T21:51:02.844Z,5.50
2024-02-13T21:54:05.418Z,5.46
2024-02-13T21:57:07.104Z,5.46
2024-02-13T22:00:09.379Z,5.47
2024-02-13T22:03:10.539Z,5.48
2024-02-13T22:06:12.692Z,5.49
2024-02-13T22:09:13.940Z,5.46
2024-02-13T22:12:14.889Z,5.48
2024-02-13T22:15:19.197Z,5.47
2024-02-13T22:18:26.186Z,5.50
2024-02-13T22:21:27.977Z,5.53
2024-02-13T22:24:30.834Z,5.55
2024-02-13T22:27:31.907Z,5.59
2024-02-13T22:30:33.880Z,5.63
2024-02-13T22:33:35.357Z,5.63
2024-02-13T22:36:36.566Z,5.60
2024-02-13T22:39:37.588Z,5.59
2024-02-13T22:42:38.545Z,5.62
2024-02-13T22:45:39.550Z,5.64
2024-02-13T22:48:40.727Z,5.67
2024-02-13T22:51:45.008Z,5.72
2024-02-13T22:54:46.554Z,5.74
2024-02-13T22:57:47.655Z,5.76
2024-02-13T23:00:57.547Z,5.81
2024-02-13T23:04:00.873Z,5.87
2024-02-13T23:07:01.991Z,5.87
2024-02-13T23:10:04.586Z,5.85
2024-02-13T23:13:05.576Z,5.79
2024-02-13T23:16:08.011Z,5.76
2024-02-13T23:19:10.889Z,5.77
2024-02-13T23:22:13.949Z,5.75
2024-02-13T23:25:15.190Z,5.78
2024-02-13T23:28:16.933Z,5.82
2024-02-13T23:31:19.427Z,5.83
2024-02-13T23:34:20.539Z,5.86
2024-02-13T23:37:21.610Z,5.88
2024-02-13T23:40:22.566Z,5.88
2024-02-13T23:43:23.567Z,5.81
2024-02-13T23:46:25.699Z,5.83
2024-02-13T23:49:27.426Z,5.83
2024-02-13T23:52:28.436Z,5.78
2024-02-13T23:55:29.456Z,5.75
2024-02-13T23:58:32.763Z,5.76
